Time;durP1;ratioP1;P1;durP2;ratioP2;P2;SDS_P1;SDS_P2;PMS_P1;PMS_P2;Temp;Humidity;BMP_temperature;BMP_pressure;BME280_temperature;BME280_humidity;BME280_pressure;Samples;Min_cycle;Max_cycle;Signal;HPM_P1;HPM_P2
2022/11/29 00:01:26;;;;;;;3.22;2.20;;;;;;;1.73;80.06;93568.44;5090963;28;20032;-35
2022/11/29 00:03:52;;;;;;;5.05;4.55;;;;;;;1.62;79.88;93552.06;5090779;28;20119;-35
2022/11/29 00:06:20;;;;;;;5.18;3.35;;;;;;;1.71;80.29;93553.81;5078312;28;20043;-35
2022/11/29 00:08:46;;;;;;;1.67;1.52;;;;;;;1.84;79.21;93562.28;5070086;28;20051;-34
2022/11/29 00:12:10;;;;;;;4.63;3.75;;;;;;;1.81;79.28;93553.13;5070525;28;20440;-35
2022/11/29 00:14:04;;;;;;;2.38;2.05;;;;;;;1.82;79.64;93560.03;5070139;28;20032;-35
2022/11/29 00:16:30;;;;;;;1.90;1.73;;;;;;;1.92;79.16;93569.50;5070337;28;20106;-35
2022/11/29 00:18:55;;;;;;;3.03;2.38;;;;;;;1.93;79.67;93570.22;5070239;28;20477;-35
2022/11/29 00:21:21;;;;;;;2.97;2.78;;;;;;;1.92;79.05;93563.28;5070267;28;20066;-34
2022/11/29 00:23:46;;;;;;;2.08;1.77;;;;;;;1.97;79.38;93566.03;5070109;28;20033;-35
2022/11/29 00:26:12;;;;;;;7.00;4.55;;;;;;;1.99;79.65;93560.81;5082170;28;20110;-34
2022/11/29 00:28:37;;;;;;;4.30;2.70;;;;;;;1.96;78.94;93556.38;5082687;28;20028;-35
2022/11/29 00:31:23;;;;;;;3.45;2.20;;;;;;;1.90;79.36;93560.31;5069811;28;20081;-35
2022/11/29 00:33:49;;;;;;;1.70;1.60;;;;;;;1.89;79.11;93559.56;5070029;28;20705;-34
2022/11/29 00:36:15;;;;;;;7.57;5.75;;;;;;;1.83;79.22;93553.38;5052227;28;20040;-34
2022/11/29 00:38:40;;;;;;;3.17;1.92;;;;;;;1.86;79.07;93559.81;5070324;28;20400;-35
2022/11/29 00:41:07;;;;;;;2.15;1.75;;;;;;;1.87;79.24;93566.72;5070289;28;20020;-35
2022/11/29 00:43:32;;;;;;;2.22;2.03;;;;;;;1.84;79.75;93568.44;5069999;28;20025;-34
2022/11/29 00:45:58;;;;;;;8.90;4.40;;;;;;;1.90;79.63;93576.66;5069951;28;20035;-35
2022/11/29 00:48:24;;;;;;;5.55;3.08;;;;;;;1.94;78.96;93577.91;5069793;28;20527;-35
2022/11/29 00:50:49;;;;;;;2.72;1.98;;;;;;;1.91;79.07;93576.16;5069987;28;20025;-35
2022/11/29 00:53:15;;;;;;;2.20;1.52;;;;;;;1.91;78.44;93567.22;5070165;28;20028;-35
2022/11/29 00:55:43;;;;;;;6.40;3.70;;;;;;;1.87;79.11;93572.19;5069964;28;20746;-34
2022/11/29 00:58:08;;;;;;;6.80;4.13;;;;;;;1.94;78.58;93582.59;5051929;28;20025;-35
2022/11/29 01:00:34;;;;;;;3.28;2.70;;;;;;;1.98;78.02;93574.94;5069738;28;20097;-34
2022/11/29 01:03:00;;;;;;;1.48;1.15;;;;;;;1.83;77.46;93560.78;5085559;28;20027;-34
2022/11/29 01:05:26;;;;;;;2.95;1.83;;;;;;;1.86;78.24;93568.72;5089874;28;20028;-34
2022/11/29 01:07:51;;;;;;;2.58;1.88;;;;;;;1.87;78.17;93564.00;5089615;28;20097;-35
2022/11/29 01:10:17;;;;;;;2.25;1.52;;;;;;;1.80;78.69;93573.38;5090188;28;20024;-34
2022/11/29 01:12:42;;;;;;;1.90;1.50;;;;;;;1.78;78.27;93569.66;5090177;28;20492;-34
2022/11/29 01:15:08;;;;;;;1.80;1.60;;;;;;;1.77;78.32;93568.19;5090152;28;20511;-34
2022/11/29 01:17:34;;;;;;;2.47;1.70;;;;;;;1.79;78.49;93565.72;5081848;28;20025;-34
2022/11/29 01:20:00;;;;;;;2.00;1.70;;;;;;;1.75;78.33;93567.94;5069584;28;20137;-34
2022/11/29 01:22:26;;;;;;;2.00;1.42;;;;;;;1.74;79.02;93574.59;5069633;28;20024;-34
2022/11/29 01:24:51;;;;;;;3.20;2.50;;;;;;;1.64;79.09;93565.91;5070381;28;20033;-34
2022/11/29 01:27:16;;;;;;;1.88;1.73;;;;;;;1.63;78.48;93563.66;5089653;28;20016;-34
2022/11/29 01:29:42;;;;;;;1.98;1.60;;;;;;;1.59;79.50;93558.47;5073107;28;20035;-35
2022/11/29 01:32:07;;;;;;;1.73;1.58;;;;;;;1.63;79.86;93563.66;5069544;28;20031;-34
2022/11/29 01:34:33;;;;;;;2.30;2.10;;;;;;;1.53;79.62;93561.16;5069672;28;20024;-35
2022/11/29 01:36:58;;;;;;;1.50;1.30;;;;;;;1.54;80.58;93559.91;5069800;28;20024;-34
2022/11/29 01:39:24;;;;;;;2.10;1.70;;;;;;;1.45;80.40;93554.69;5069408;28;20496;-34
2022/11/29 01:41:49;;;;;;;2.50;1.67;;;;;;;1.46;80.98;93561.63;5069591;28;20077;-34
2022/11/29 01:44:14;;;;;;;1.80;1.70;;;;;;;1.48;81.06;93555.69;5072411;28;20024;-35
2022/11/29 01:46:43;;;;;;;1.73;1.63;;;;;;;1.51;81.02;93552.75;5072946;28;20028;-35
2022/11/29 01:49:21;;;;;;;3.17;1.98;;;;;;;1.59;81.06;93557.72;5073190;28;20020;-35
2022/11/29 01:51:54;;;;;;;1.95;1.67;;;;;;;1.51;80.76;93554.72;5072853;28;20577;-35
2022/11/29 01:54:20;;;;;;;1.92;1.55;;;;;;;1.39;81.02;93567.50;5055438;28;20066;-34
2022/11/29 01:56:48;;;;;;;2.42;1.80;;;;;;;1.29;82.09;93560.03;5072994;28;20075;-34
2022/11/29 01:59:16;;;;;;;4.53;2.78;;;;;;;1.26;82.50;93553.59;5070475;28;20107;-34
2022/11/29 02:01:42;;;;;;;5.05;3.50;;;;;;;1.31;83.16;93543.97;5075199;28;20068;-34
2022/11/29 02:04:08;;;;;;;6.90;3.53;;;;;;;1.33;83.55;93545.00;5075075;28;20565;-34
2022/11/29 02:06:34;;;;;;;11.18;5.00;;;;;;;1.34;83.79;93543.75;5093082;28;20020;-34
2022/11/29 02:09:00;;;;;;;3.92;2.53;;;;;;;1.30;83.32;93534.34;5092647;28;20048;-34
2022/11/29 02:12:01;;;;;;;4.95;3.22;;;;;;;1.27;84.20;93535.31;5093003;28;20085;-34
2022/11/29 02:14:32;;;;;;;3.85;2.58;;;;;;;1.22;83.76;93534.03;5061444;28;20405;-34
2022/11/29 02:17:19;;;;;;;2.97;2.40;;;;;;;1.21;84.31;93537.97;5089853;28;20028;-35
2022/11/29 02:19:56;;;;;;;2.55;2.17;;;;;;;1.16;84.41;93530.56;5072663;28;20067;-34
2022/11/29 02:22:39;;;;;;;1.83;1.67;;;;;;;1.18;84.92;93525.38;5072336;28;20021;-34
2022/11/29 02:25:58;;;;;;;2.45;2.03;;;;;;;1.26;85.03;93523.69;5075247;28;20076;-34
2022/11/29 02:28:54;;;;;;;3.20;2.53;;;;;;;1.33;85.19;93525.94;5009988;28;20030;-34
2022/11/29 02:31:32;;;;;;;3.55;2.88;;;;;;;1.40;84.14;93533.66;5072207;28;20032;-34
2022/11/29 02:34:06;;;;;;;3.92;2.55;;;;;;;1.41;84.62;93531.66;5071999;28;20036;-35
2022/11/29 02:36:37;;;;;;;2.63;1.73;;;;;;;1.40;83.94;93525.50;5072049;28;20107;-34
2022/11/29 02:39:08;;;;;;;1.90;1.52;;;;;;;1.47;83.66;93530.44;5071938;28;20056;-34
2022/11/29 02:42:02;;;;;;;1.83;1.73;;;;;;;1.47;83.48;93530.44;5071922;28;20025;-35
2022/11/29 02:44:45;;;;;;;2.33;2.13;;;;;;;1.51;83.44;93525.53;5071971;28;20619;-34
2022/11/29 02:47:29;;;;;;;2.63;1.88;;;;;;;1.55;83.29;93533.47;5071787;28;20044;-35
2022/11/29 02:50:03;;;;;;;2.42;1.95;;;;;;;1.66;83.67;93532.75;5071710;28;20035;-34
2022/11/29 02:52:59;;;;;;;2.72;1.42;;;;;;;1.70;81.96;93531.28;5071682;28;20020;-34
2022/11/29 02:55:37;;;;;;;1.75;1.60;;;;;;;1.64;82.14;93535.97;5065260;28;20025;-34
2022/11/29 02:58:13;;;;;;;2.35;2.15;;;;;;;1.65;82.21;93529.28;5053751;28;20484;-34
2022/11/29 03:00:46;;;;;;;11.80;6.72;;;;;;;1.62;81.98;93521.38;5053764;28;20029;-35
2022/11/29 03:03:19;;;;;;;8.77;4.20;;;;;;;1.69;82.69;93529.78;5053945;28;20028;-34
2022/11/29 03:06:00;;;;;;;7.10;4.15;;;;;;;1.71;81.79;93526.59;5070197;28;20020;-35
2022/11/29 03:08:58;;;;;;;1.98;1.70;;;;;;;1.71;81.31;93532.03;5071163;28;20427;-34
2022/11/29 03:11:33;;;;;;;1.85;1.70;;;;;;;1.66;81.03;93532.75;5042099;28;20143;-34
2022/11/29 03:14:16;;;;;;;2.30;1.92;;;;;;;1.57;81.39;93530.25;5071277;28;20484;-34
2022/11/29 03:17:11;;;;;;;2.83;1.45;;;;;;;1.51;81.59;93522.81;5053775;28;20539;-34
2022/11/29 03:19:51;;;;;;;2.47;2.03;;;;;;;1.45;82.19;93532.91;5091399;28;20031;-35
2022/11/29 03:22:20;;;;;;;2.90;2.13;;;;;;;1.48;81.98;93531.94;5091713;28;20028;-35
2022/11/29 03:25:05;;;;;;;1.75;1.65;;;;;;;1.49;82.37;93527.25;5072841;28;20020;-34
2022/11/29 03:27:38;;;;;;;1.38;1.08;;;;;;;1.43;81.70;93534.63;5090564;28;20032;-34
2022/11/29 03:30:07;;;;;;;2.15;1.67;;;;;;;1.26;82.15;93520.97;5054006;28;20109;-34
2022/11/29 03:32:41;;;;;;;2.25;2.05;;;;;;;1.37;82.51;93534.63;5070772;28;20074;-34
2022/11/29 03:35:13;;;;;;;2.70;2.00;;;;;;;1.34;82.62;93534.84;5070814;28;20032;-34
2022/11/29 03:37:54;;;;;;;2.28;1.98;;;;;;;1.30;82.70;93537.78;5053068;28;20021;-34
2022/11/29 03:40:26;;;;;;;2.17;1.98;;;;;;;1.35;83.52;93537.09;5070787;28;20116;-34
2022/11/29 03:43:03;;;;;;;2.55;2.35;;;;;;;1.31;82.93;93535.81;5052967;28;20020;-35
2022/11/29 03:45:41;;;;;;;3.13;2.42;;;;;;;1.35;83.47;93544.50;5052823;28;20028;-35
2022/11/29 03:48:13;;;;;;;2.63;1.92;;;;;;;1.32;83.03;93535.31;5052972;28;20111;-34
2022/11/29 03:50:42;;;;;;;2.25;1.75;;;;;;;1.28;83.05;93540.25;5059363;28;20028;-34
2022/11/29 03:53:16;;;;;;;1.40;1.30;;;;;;;1.34;83.31;93535.59;5072779;28;20020;-34
2022/11/29 03:56:00;;;;;;;1.73;1.60;;;;;;;1.33;83.09;93538.78;5072644;28;20559;-34
2022/11/29 03:58:31;;;;;;;1.73;1.52;;;;;;;1.36;83.49;93535.13;5090682;28;20074;-35
2022/11/29 04:01:12;;;;;;;1.65;1.50;;;;;;;1.34;83.26;93529.41;5091020;28;20020;-34
2022/11/29 04:04:11;;;;;;;5.85;1.90;;;;;;;1.41;83.13;93526.22;5090516;28;20035;-35
2022/11/29 04:06:51;;;;;;;1.33;1.00;;;;;;;1.47;83.21;93540.59;5090138;28;20024;-35
2022/11/29 04:09:51;;;;;;;1.95;1.45;;;;;;;1.43;82.64;93538.09;5072282;28;20142;-34
2022/11/29 04:12:23;;;;;;;1.50;1.40;;;;;;;1.48;82.86;93542.84;5072529;28;20106;-34
2022/11/29 04:15:15;;;;;;;2.17;1.60;;;;;;;1.60;82.39;93543.63;5090479;28;20024;-34
2022/11/29 04:17:55;;;;;;;3.03;1.35;;;;;;;1.50;82.63;93556.69;5082097;28;20024;-35
2022/11/29 04:20:33;;;;;;;1.65;1.55;;;;;;;1.48;82.59;93555.69;5070344;28;20035;-34
2022/11/29 04:23:16;;;;;;;1.67;1.30;;;;;;;1.49;82.84;93557.91;5070183;28;20073;-34
2022/11/29 04:26:03;;;;;;;4.40;2.60;;;;;;;1.56;83.10;93566.88;5070160;28;20020;-35
2022/11/29 04:28:28;;;;;;;29.02;10.88;;;;;;;1.58;81.97;93565.16;5070246;28;20408;-34
2022/11/29 04:31:02;;;;;;;15.18;5.30;;;;;;;1.66;82.41;93562.69;5087989;28;20057;-35
2022/11/29 04:34:40;;;;;;;15.32;6.72;;;;;;;1.69;81.38;93564.44;5090445;28;20096;-35
2022/11/29 04:37:43;;;;;;;8.32;4.55;;;;;;;1.75;81.20;93562.50;4988445;28;20058;-34
2022/11/29 04:40:55;;;;;;;21.17;8.93;;;;;;;1.73;81.63;93556.78;4988306;28;20041;-34
2022/11/29 04:43:35;;;;;;;7.25;4.28;;;;;;;1.68;81.66;93550.09;5090514;28;20034;-34
2022/11/29 04:46:09;;;;;;;4.82;3.30;;;;;;;1.71;82.38;93559.97;5090399;28;20467;-35
2022/11/29 04:48:42;;;;;;;6.93;3.15;;;;;;;1.79;83.30;93560.28;5069809;28;20580;-34
2022/11/29 04:51:18;;;;;;;7.63;4.10;;;;;;;1.87;82.79;93555.84;5052085;28;20530;-35
2022/11/29 04:53:51;;;;;;;5.40;3.63;;;;;;;1.86;82.06;93566.00;5052104;28;20029;-34
2022/11/29 04:56:47;;;;;;;5.55;3.25;;;;;;;1.65;81.69;93566.63;5068940;28;20021;-35
2022/11/29 04:59:34;;;;;;;8.25;4.80;;;;;;;1.67;81.32;93566.91;5039812;28;20032;-35
2022/11/29 05:02:18;;;;;;;19.98;8.95;;;;;;;1.61;82.14;93560.69;5051925;28;20024;-34
2022/11/29 05:04:52;;;;;;;9.88;5.88;;;;;;;1.61;81.69;93560.69;5069804;28;20023;-34
2022/11/29 05:07:24;;;;;;;9.10;5.88;;;;;;;1.60;81.87;93559.97;5069889;28;20093;-34
2022/11/29 05:10:17;;;;;;;9.75;5.68;;;;;;;1.36;82.44;93549.47;5051888;28;20033;-34
2022/11/29 05:13:14;;;;;;;9.02;4.70;;;;;;;1.43;82.65;93553.66;5069737;28;20039;-34
2022/11/29 05:15:43;;;;;;;3.55;2.70;;;;;;;1.46;82.76;93564.34;5046125;28;20173;-34
2022/11/29 05:18:17;;;;;;;13.40;5.78;;;;;;;1.46;82.57;93556.19;5085211;28;20020;-34
2022/11/29 05:21:17;;;;;;;17.52;7.75;;;;;;;1.42;83.10;93572.00;5075972;28;20057;-34
2022/11/29 05:24:01;;;;;;;19.45;8.63;;;;;;;1.44;82.54;93577.69;5075907;28;20040;-34
2022/11/29 05:26:36;;;;;;;21.05;9.88;;;;;;;1.46;82.68;93567.06;5075493;28;20039;-34
2022/11/29 05:29:10;;;;;;;20.00;8.27;;;;;;;1.49;82.48;93565.34;5064568;28;20028;-34
2022/11/29 05:32:09;;;;;;;29.48;13.50;;;;;;;1.61;82.21;93571.56;5055651;28;20032;-34
2022/11/29 05:34:56;;;;;;;64.38;21.67;;;;;;;1.52;82.53;93569.81;5055294;28;20059;-34
2022/11/29 05:37:37;;;;;;;10.70;5.97;;;;;;;1.47;82.25;93576.69;5073150;28;20028;-34
2022/11/29 05:40:13;;;;;;;24.80;8.88;;;;;;;1.51;82.86;93574.53;5072954;28;20025;-34
2022/11/29 05:42:41;;;;;;;33.72;10.90;;;;;;;1.52;83.35;93575.25;5057666;28;20056;-34
2022/11/29 05:45:20;;;;;;;10.57;6.25;;;;;;;1.50;83.95;93581.19;5093187;28;20034;-34
2022/11/29 05:48:11;;;;;;;8.82;3.97;;;;;;;1.60;83.66;93572.81;5075153;28;20032;-35
2022/11/29 05:51:14;;;;;;;4.47;2.95;;;;;;;1.57;84.19;93581.94;5075157;28;20104;-34
2022/11/29 05:53:54;;;;;;;18.05;6.20;;;;;;;1.49;84.09;93579.69;5093075;28;20073;-34
2022/11/29 05:56:39;;;;;;;14.10;8.60;;;;;;;1.56;83.60;93572.31;5075232;28;20085;-34
2022/11/29 05:59:12;;;;;;;13.02;6.18;;;;;;;1.57;83.54;93577.25;5093269;28;20051;-35
2022/11/29 06:01:49;;;;;;;3.90;2.78;;;;;;;1.59;83.43;93574.03;5074921;28;20028;-34
2022/11/29 06:04:20;;;;;;;8.68;4.47;;;;;;;1.62;83.57;93573.81;5074829;28;20564;-34
2022/11/29 06:06:51;;;;;;;8.85;5.15;;;;;;;1.66;83.82;93570.84;5074856;28;20035;-34
2022/11/29 06:09:25;;;;;;;8.20;5.20;;;;;;;1.72;82.86;93566.94;5074569;28;20047;-34
2022/11/29 06:12:14;;;;;;;13.45;6.85;;;;;;;1.70;82.30;93569.41;5075024;28;20063;-35
2022/11/29 06:14:51;;;;;;;6.78;3.40;;;;;;;1.83;82.31;93566.22;5074979;28;20081;-34
2022/11/29 06:17:32;;;;;;;18.63;7.15;;;;;;;1.95;81.55;93562.31;5087471;28;20171;-34
2022/11/29 06:20:09;;;;;;;32.45;11.80;;;;;;;2.01;81.83;93560.34;5072511;28;20036;-34
2022/11/29 06:22:47;;;;;;;59.63;18.15;;;;;;;2.05;82.18;93560.84;5072288;28;20032;-34
2022/11/29 06:25:30;;;;;;;7.63;3.72;;;;;;;2.15;82.67;93567.56;5076444;28;20115;-34
2022/11/29 06:28:27;;;;;;;7.55;4.25;;;;;;;2.18;82.20;93566.59;5090325;28;20484;-34
2022/11/29 06:30:59;;;;;;;6.95;4.32;;;;;;;2.24;81.93;93570.06;5054592;28;20033;-34
2022/11/29 06:33:27;;;;;;;5.05;3.63;;;;;;;2.38;81.17;93563.66;5072135;28;20028;-34
2022/11/29 06:36:03;;;;;;;3.25;2.42;;;;;;;2.47;81.06;93571.59;5054526;28;20047;-35
2022/11/29 06:38:29;;;;;;;2.17;1.98;;;;;;;2.50;81.16;93558.97;5054207;28;20037;-35
2022/11/29 06:40:57;;;;;;;5.13;3.55;;;;;;;2.68;81.07;93563.94;5091249;28;20119;-35
2022/11/29 06:43:24;;;;;;;4.82;3.60;;;;;;;2.74;80.73;93562.69;5092451;28;20085;-34
2022/11/29 06:45:59;;;;;;;4.22;3.70;;;;;;;2.90;79.96;93566.69;5092308;28;20027;-35
2022/11/29 06:48:27;;;;;;;7.03;3.38;;;;;;;3.05;79.06;93565.16;5074305;28;20057;-35
2022/11/29 06:50:58;;;;;;;5.07;2.95;;;;;;;3.23;78.54;93569.34;5074038;28;20020;-35
2022/11/29 06:53:36;;;;;;;4.50;3.33;;;;;;;3.33;78.11;93564.38;5073906;28;20077;-34
2022/11/29 06:56:22;;;;;;;9.97;5.40;;;;;;;3.38;77.03;93572.56;5074134;28;20039;-35
2022/11/29 06:59:18;;;;;;;6.97;3.55;;;;;;;3.20;76.67;93566.88;5091742;28;20035;-35
2022/11/29 07:01:52;;;;;;;5.78;2.83;;;;;;;3.37;76.02;93573.06;5076479;28;20031;-35
2022/11/29 07:04:40;;;;;;;1.30;1.20;;;;;;;3.41;74.65;93573.53;5091990;28;20572;-35
2022/11/29 07:07:13;;;;;;;1.95;1.48;;;;;;;3.39;74.47;93576.78;5091642;28;20024;-35
2022/11/29 07:09:40;;;;;;;1.52;1.33;;;;;;;3.53;74.10;93577.75;5091366;28;20071;-34
2022/11/29 07:12:06;;;;;;;1.85;1.20;;;;;;;3.45;74.54;93584.94;5073431;28;20023;-34
2022/11/29 07:14:31;;;;;;;3.50;2.90;;;;;;;3.46;74.15;93578.25;5091764;28;20024;-34
2022/11/29 07:17:24;;;;;;;5.65;2.20;;;;;;;3.50;74.40;93579.50;5089028;28;20518;-34
2022/11/29 07:20:08;;;;;;;4.45;1.70;;;;;;;3.36;75.59;93583.22;5071460;28;20028;-34
2022/11/29 07:22:55;;;;;;;1.83;1.60;;;;;;;3.40;76.20;93585.72;5071148;28;20028;-34
2022/11/29 07:25:35;;;;;;;3.72;2.58;;;;;;;3.49;76.35;93580.72;5076433;28;20058;-35
2022/11/29 07:28:14;;;;;;;3.65;2.28;;;;;;;3.58;76.09;93590.63;5088663;28;20495;-35
2022/11/29 07:30:54;;;;;;;1.92;1.75;;;;;;;3.66;76.15;93584.16;5070960;28;20021;-35
2022/11/29 07:33:26;;;;;;;5.35;3.05;;;;;;;3.79;75.02;93587.09;5071260;28;20047;-35
2022/11/29 07:36:18;;;;;;;5.10;2.60;;;;;;;3.85;73.33;93587.09;5079425;28;20032;-34
2022/11/29 07:38:58;;;;;;;6.35;3.40;;;;;;;3.89;73.70;93589.56;5086999;28;20040;-35
2022/11/29 07:41:33;;;;;;;3.60;2.38;;;;;;;3.93;72.82;93588.03;5091004;28;20032;-35
2022/11/29 07:44:14;;;;;;;2.50;2.10;;;;;;;3.89;73.27;93593.03;5091267;28;20031;-35
2022/11/29 07:46:39;;;;;;;4.88;2.25;;;;;;;3.96;73.01;93600.72;5090824;28;20035;-35
2022/11/29 07:49:05;;;;;;;6.03;3.38;;;;;;;3.92;73.00;93602.22;5091095;28;20020;-35
2022/11/29 07:51:30;;;;;;;4.05;2.53;;;;;;;3.88;74.92;93597.00;5091077;28;20114;-34
2022/11/29 07:53:56;;;;;;;25.27;9.07;;;;;;;3.73;74.97;93591.84;5090746;28;20474;-35
2022/11/29 07:56:21;;;;;;;9.13;4.05;;;;;;;3.79;75.09;93597.25;5091156;28;20028;-35
2022/11/29 07:58:46;;;;;;;3.97;3.45;;;;;;;3.78;75.57;93590.34;5090920;28;20016;-35
2022/11/29 08:01:12;;;;;;;9.57;5.57;;;;;;;3.86;75.73;93596.75;5090777;28;20096;-35
2022/11/29 08:03:40;;;;;;;36.47;17.95;;;;;;;3.88;75.06;93599.00;5090673;28;20039;-35
2022/11/29 08:06:06;;;;;;;12.40;8.13;;;;;;;3.85;75.08;93598.00;5090568;28;20089;-35
2022/11/29 08:08:31;;;;;;;5.72;4.22;;;;;;;3.84;74.80;93596.50;5090355;28;20048;-35
2022/11/29 08:10:58;;;;;;;7.35;3.97;;;;;;;3.78;75.03;93598.53;5090804;28;20074;-35
2022/11/29 08:13:23;;;;;;;8.43;3.25;;;;;;;3.65;74.89;93599.06;5090497;28;20530;-34
2022/11/29 08:15:49;;;;;;;6.60;4.07;;;;;;;3.69;74.70;93601.53;5090437;28;20097;-34
2022/11/29 08:18:15;;;;;;;11.65;4.22;;;;;;;3.63;75.07;93601.56;5076965;28;20036;-34
2022/11/29 08:20:41;;;;;;;6.32;3.85;;;;;;;3.63;75.11;93604.28;5070222;28;20113;-34
2022/11/29 08:23:08;;;;;;;2.08;1.85;;;;;;;3.67;74.90;93604.00;5070163;28;20020;-34
2022/11/29 08:25:34;;;;;;;2.67;1.70;;;;;;;3.58;74.54;93607.00;5059340;28;20135;-34
2022/11/29 08:28:01;;;;;;;3.42;2.38;;;;;;;3.59;74.93;93606.53;5087864;28;20507;-34
2022/11/29 08:30:27;;;;;;;11.45;6.15;;;;;;;3.57;75.01;93606.25;5070117;28;20760;-34
2022/11/29 08:32:52;;;;;;;8.27;4.00;;;;;;;3.61;75.27;93606.78;5084848;28;20119;-35
2022/11/29 08:35:20;;;;;;;6.05;3.08;;;;;;;3.62;74.53;93604.75;5090244;28;20040;-34
2022/11/29 08:37:45;;;;;;;3.58;2.35;;;;;;;3.67;75.28;93604.00;5090519;28;20030;-34
2022/11/29 08:40:11;;;;;;;5.15;2.80;;;;;;;3.70;75.26;93603.75;5090412;28;20033;-35
2022/11/29 08:42:37;;;;;;;4.10;2.42;;;;;;;3.76;76.11;93595.56;5090172;28;20111;-35
2022/11/29 08:45:03;;;;;;;2.38;1.80;;;;;;;3.85;76.12;93600.75;5090502;28;20166;-34
2022/11/29 08:47:34;;;;;;;6.13;3.10;;;;;;;3.93;76.06;93590.78;5089979;28;20461;-35
2022/11/29 08:50:00;;;;;;;5.15;3.33;;;;;;;3.89;77.07;93589.56;5090332;28;20042;-34
2022/11/29 08:55:19;;;;;;;3.95;2.60;;;;;;;3.82;77.42;93588.84;5094571;28;20063;-35
2022/11/29 08:57:45;;;;;;;1.58;1.45;;;;;;;3.90;77.31;93597.22;5094136;28;20050;-35
2022/11/29 09:00:12;;;;;;;4.65;2.60;;;;;;;3.78;76.72;93598.53;5094027;28;20070;-35
2022/11/29 09:02:37;;;;;;;2.30;1.75;;;;;;;3.83;77.30;93592.31;5094294;28;20472;-35
2022/11/29 09:05:05;;;;;;;6.90;2.67;;;;;;;3.79;76.59;93594.53;5094346;28;20077;-35
2022/11/29 09:07:30;;;;;;;9.40;3.30;;;;;;;3.83;76.03;93595.75;5093957;28;20420;-35
2022/11/29 09:09:56;;;;;;;4.70;2.83;;;;;;;3.81;76.23;93589.34;5094166;28;20034;-34
2022/11/29 09:12:21;;;;;;;4.05;1.88;;;;;;;3.65;76.52;93584.66;5093954;28;20122;-34
2022/11/29 09:14:47;;;;;;;6.05;3.28;;;;;;;3.74;77.11;93589.84;5093723;28;20441;-34
2022/11/29 09:17:12;;;;;;;9.85;3.72;;;;;;;3.78;77.00;93587.59;5075645;28;20028;-34
2022/11/29 09:19:38;;;;;;;3.47;2.17;;;;;;;3.69;75.11;93582.41;5093681;28;20025;-34
2022/11/29 09:22:03;;;;;;;10.40;5.13;;;;;;;3.60;75.92;93583.44;5093921;28;20023;-34
2022/11/29 09:24:29;;;;;;;18.77;8.32;;;;;;;3.66;75.38;93588.88;5093920;28;20020;-35
2022/11/29 09:26:54;;;;;;;12.02;6.47;;;;;;;3.63;75.41;93584.41;5093575;28;20043;-34
2022/11/29 09:29:19;;;;;;;6.45;3.67;;;;;;;3.68;74.51;93584.38;5081493;28;20024;-35
2022/11/29 09:31:45;;;;;;;8.40;3.90;;;;;;;3.63;75.13;93587.16;5093834;28;20064;-34
2022/11/29 09:34:15;;;;;;;5.78;3.33;;;;;;;3.59;75.11;93581.97;5093434;28;20020;-35
2022/11/29 09:36:42;;;;;;;8.65;4.53;;;;;;;3.60;75.12;93582.69;5093738;28;20032;-35
2022/11/29 09:39:09;;;;;;;6.20;3.42;;;;;;;3.55;74.85;93570.53;5093622;28;20020;-35
2022/11/29 09:41:37;;;;;;;6.90;3.40;;;;;;;3.56;74.88;93572.03;5093300;28;20514;-34
2022/11/29 09:44:23;;;;;;;7.33;4.10;;;;;;;3.60;75.29;93569.78;5093541;28;20051;-34
2022/11/29 09:46:55;;;;;;;8.18;3.20;;;;;;;3.53;75.71;93569.56;5075188;28;20438;-34
2022/11/29 09:49:42;;;;;;;4.47;2.78;;;;;;;3.54;75.68;93563.59;5075375;28;20024;-35
2022/11/29 09:52:32;;;;;;;2.80;2.05;;;;;;;3.46;76.04;93557.19;5093143;28;20184;-35
2022/11/29 09:55:13;;;;;;;6.15;2.75;;;;;;;3.37;75.63;93554.72;5093415;28;20050;-34
2022/11/29 09:57:40;;;;;;;15.88;5.05;;;;;;;3.30;76.77;93557.19;5093296;28;20042;-35
2022/11/29 10:00:14;;;;;;;9.50;4.68;;;;;;;3.18;77.63;93553.00;5075027;28;20579;-34
2022/11/29 10:02:46;;;;;;;12.75;5.90;;;;;;;3.16;78.11;93547.31;5092710;28;20101;-34
2022/11/29 10:05:28;;;;;;;14.45;5.88;;;;;;;3.13;77.36;93559.19;5074955;28;20043;-34
2022/11/29 10:07:55;;;;;;;10.45;6.63;;;;;;;3.09;78.81;93559.47;5074797;28;20422;-34
2022/11/29 10:10:47;;;;;;;12.20;6.68;;;;;;;3.21;78.71;93552.00;5075019;28;20036;-34
2022/11/29 10:13:22;;;;;;;14.75;7.57;;;;;;;3.34;78.88;93552.22;5074836;28;20062;-35
2022/11/29 10:15:50;;;;;;;10.90;6.05;;;;;;;3.40;78.95;93550.25;5075127;28;20067;-34
2022/11/29 10:18:26;;;;;;;7.07;4.30;;;;;;;3.52;78.41;93554.41;5079306;28;20012;-35
2022/11/29 10:20:53;;;;;;;6.40;4.72;;;;;;;3.62;77.95;93550.16;5055012;28;20028;-35
2022/11/29 10:23:32;;;;;;;5.47;4.55;;;;;;;3.73;78.73;93547.41;5054753;28;20020;-35
2022/11/29 10:25:57;;;;;;;5.32;3.42;;;;;;;3.79;77.93;93539.91;5073547;28;20419;-35
2022/11/29 10:28:29;;;;;;;3.72;2.92;;;;;;;3.93;78.41;93549.81;5087158;28;20024;-34
2022/11/29 10:31:01;;;;;;;6.57;4.18;;;;;;;3.92;78.37;93547.59;5072483;28;20027;-34
2022/11/29 10:33:32;;;;;;;4.93;3.38;;;;;;;3.93;78.71;93549.06;5072122;28;20477;-35
2022/11/29 10:36:04;;;;;;;2.42;2.05;;;;;;;3.79;77.36;93548.88;5072365;28;20051;-34
2022/11/29 10:38:30;;;;;;;5.47;3.33;;;;;;;3.72;77.77;93549.41;5054433;28;20025;-34
2022/11/29 10:41:06;;;;;;;3.25;2.35;;;;;;;3.54;77.64;93539.03;5072094;28;20489;-34
2022/11/29 10:43:32;;;;;;;2.88;2.53;;;;;;;3.56;78.56;93550.19;5054216;28;20028;-34
2022/11/29 10:45:58;;;;;;;3.88;2.72;;;;;;;3.57;77.50;93546.19;5071794;28;20073;-34
2022/11/29 10:48:30;;;;;;;5.90;3.47;;;;;;;3.66;77.75;93537.75;5054071;28;20016;-35
2022/11/29 10:50:56;;;;;;;6.38;4.28;;;;;;;3.74;77.45;93537.97;5071848;28;20021;-34
2022/11/29 10:53:24;;;;;;;7.95;3.78;;;;;;;3.65;77.34;93535.50;5072063;28;20027;-34
2022/11/29 10:56:06;;;;;;;6.15;4.32;;;;;;;3.65;77.16;93532.78;5071762;28;20111;-34
2022/11/29 10:58:32;;;;;;;2.95;2.30;;;;;;;3.63;78.36;93540.75;5054075;28;20035;-35
2022/11/29 11:01:05;;;;;;;1.40;1.25;;;;;;;3.60;76.84;93528.09;5053795;28;20416;-35
2022/11/29 11:03:36;;;;;;;1.45;1.23;;;;;;;3.55;77.22;93526.13;5071346;28;20123;-35
2022/11/29 11:06:14;;;;;;;1.98;1.67;;;;;;;3.64;77.57;93528.56;5071649;28;20115;-35
2022/11/29 11:08:51;;;;;;;1.65;1.55;;;;;;;3.73;77.59;93520.09;5071229;28;20052;-35
2022/11/29 11:11:31;;;;;;;2.38;1.92;;;;;;;3.80;77.38;93514.09;5071350;28;20024;-34
2022/11/29 11:14:01;;;;;;;4.57;3.13;;;;;;;3.83;77.88;93516.56;5053363;28;20497;-35
2022/11/29 11:16:27;;;;;;;2.88;2.45;;;;;;;3.94;78.50;93512.31;5071036;28;20394;-35
2022/11/29 11:18:54;;;;;;;2.63;2.40;;;;;;;4.03;77.98;93504.56;5071547;28;20031;-34
2022/11/29 11:21:20;;;;;;;2.30;2.10;;;;;;;4.07;77.50;93507.75;5083504;28;20039;-35
2022/11/29 11:24:01;;;;;;;1.48;1.33;;;;;;;4.07;77.10;93504.31;5091624;28;20157;-35
2022/11/29 11:26:41;;;;;;;1.70;1.35;;;;;;;4.14;77.30;93509.22;5091284;28;20031;-34
2022/11/29 11:29:16;;;;;;;1.40;1.30;;;;;;;4.27;76.01;93507.41;5079613;28;20025;-34
2022/11/29 11:31:41;;;;;;;1.67;1.48;;;;;;;4.34;76.13;93498.66;5071317;28;20052;-34
2022/11/29 11:34:26;;;;;;;2.97;2.33;;;;;;;4.41;75.70;93497.38;5070891;28;20484;-34
2022/11/29 11:37:11;;;;;;;4.18;1.70;;;;;;;4.38;74.29;93507.31;5070880;28;20024;-34
2022/11/29 11:39:36;;;;;;;6.82;3.97;;;;;;;4.38;74.86;93509.31;5070878;28;20017;-34
2022/11/29 11:44:48;;;;;;;4.95;2.80;;;;;;;4.58;74.77;93511.66;5071136;28;20074;-34
2022/11/29 11:47:23;;;;;;;8.55;3.75;;;;;;;4.40;74.36;93502.09;5036526;28;20415;-35
2022/11/29 11:50:03;;;;;;;5.38;2.75;;;;;;;4.49;74.60;93511.97;5052808;28;20024;-35
2022/11/29 11:52:29;;;;;;;3.90;2.50;;;;;;;4.50;74.39;93506.00;5052836;28;20029;-35
2022/11/29 11:55:21;;;;;;;1.42;1.33;;;;;;;4.46;74.78;93505.53;5053207;28;20032;-34
2022/11/29 11:58:00;;;;;;;4.72;1.75;;;;;;;4.45;73.71;93509.53;5052768;28;20035;-35
2022/11/29 12:00:54;;;;;;;1.20;1.00;;;;;;;4.39;73.68;93516.28;5070899;28;20408;-34
2022/11/29 12:03:38;;;;;;;2.28;1.70;;;;;;;4.18;73.38;93488.56;5070789;28;20123;-34
2022/11/29 12:06:24;;;;;;;3.63;2.65;;;;;;;4.34;73.94;93506.13;5052971;28;20028;-35
2022/11/29 12:08:52;;;;;;;3.47;2.40;;;;;;;4.22;74.30;93499.97;5052356;28;20040;-34
2022/11/29 12:11:17;;;;;;;2.72;1.85;;;;;;;4.32;74.60;93514.81;5070630;28;20035;-34
2022/11/29 12:13:48;;;;;;;1.35;1.25;;;;;;;4.27;74.13;93512.88;5070689;28;20107;-34
2022/11/29 12:16:26;;;;;;;3.15;1.92;;;;;;;4.31;73.98;93507.88;5053255;28;20032;-35
2022/11/29 12:21:15;;;;;;;5.13;3.28;;;;;;;4.22;73.93;93515.63;5087728;27;20614;-34
2022/11/29 12:23:56;;;;;;;1.98;1.55;;;;;;;4.17;74.47;93506.22;5086530;28;20036;-34